Time;durP1;ratioP1;P1;durP2;ratioP2;P2;SDS_P1;SDS_P2;PMS_P1;PMS_P2;Temp;Humidity;BMP_temperature;BMP_pressure;BME280_temperature;BME280_humidity;BME280_pressure;Samples;Min_cycle;Max_cycle;Signal;HPM_P1;HPM_P2
2024/02/08 00:05:59;;;;;;;8.77;5.23;;;;;;;9.78;100.00;98806.63;31271783;28;20053;-82
2024/02/08 00:21:00;;;;;;;11.97;5.20;;;;;;;9.98;100.00;98816.34;31271083;28;20435;-81
2024/02/08 00:36:03;;;;;;;11.43;5.93;;;;;;;10.01;100.00;98818.16;31285196;28;20137;-81
2024/02/08 00:51:07;;;;;;;12.37;5.63;;;;;;;10.06;100.00;98820.31;31263767;28;20579;-80
2024/02/08 01:06:09;;;;;;;10.07;5.83;;;;;;;10.26;100.00;98812.59;31269576;28;20049;-82
2024/02/08 01:21:11;;;;;;;10.97;6.30;;;;;;;10.08;100.00;98812.50;31277969;28;20107;-81
2024/02/08 01:36:15;;;;;;;12.67;6.30;;;;;;;10.34;100.00;98819.25;31260251;28;20494;-81
2024/02/08 01:51:19;;;;;;;10.30;5.03;;;;;;;10.27;100.00;98797.06;31251594;28;20128;-82
2024/02/08 02:06:21;;;;;;;15.47;5.10;;;;;;;9.97;100.00;98831.09;31254501;28;20049;-82
2024/02/08 02:21:23;;;;;;;10.13;4.17;;;;;;;9.87;100.00;98836.50;31256038;28;20045;-83
2024/02/08 02:36:26;;;;;;;7.50;4.40;;;;;;;9.77;100.00;98855.84;31265347;28;20115;-84
2024/02/08 02:51:28;;;;;;;13.07;4.80;;;;;;;9.32;100.00;98884.09;31256263;28;20065;-84
2024/02/08 03:06:30;;;;;;;8.73;4.63;;;;;;;9.37;100.00;98877.38;31258491;28;20518;-82
2024/02/08 03:21:40;;;;;;;13.40;5.77;;;;;;;9.19;100.00;98880.69;31256826;28;20081;-81
2024/02/08 03:36:49;;;;;;;16.27;6.03;;;;;;;9.35;100.00;98898.72;31271782;28;20076;-82
2024/02/08 03:51:52;;;;;;;15.13;5.20;;;;;;;8.60;100.00;98905.78;31307851;28;20096;-83
2024/02/08 05:08:17;;;;;;;18.17;8.70;;;;;;;8.83;100.00;98978.50;31246462;28;20061;-77
2024/02/08 05:23:19;;;;;;;18.73;8.80;;;;;;;9.02;100.00;98969.41;31234657;28;20081;-77
2024/02/08 05:38:21;;;;;;;16.40;8.97;;;;;;;9.16;100.00;99004.16;31261846;28;20049;-77
2024/02/08 05:53:24;;;;;;;16.57;8.07;;;;;;;9.41;100.00;99021.56;31243711;28;20063;-80
2024/02/08 06:08:26;;;;;;;16.73;8.63;;;;;;;9.51;100.00;99015.03;31253923;28;20050;-79
2024/02/08 06:23:34;;;;;;;17.10;8.17;;;;;;;9.44;100.00;99042.38;31248924;28;20049;-78
2024/02/08 06:38:51;;;;;;;16.27;8.83;;;;;;;9.97;100.00;99037.13;31249425;28;20449;-78
2024/02/08 07:40:00;;;;;;;16.03;8.00;;;;;;;11.04;100.00;99085.66;31222579;28;20049;-77
2024/02/08 08:10:30;;;;;;;17.77;7.83;;;;;;;11.09;100.00;99118.44;31277549;28;20057;-80
2024/02/08 08:26:00;;;;;;;14.77;8.33;;;;;;;11.33;100.00;99150.56;31280687;28;20057;-82
2024/02/08 08:41:14;;;;;;;17.27;7.77;;;;;;;11.33;100.00;99170.31;31303857;28;20053;-82
2024/02/08 08:56:21;;;;;;;16.37;7.30;;;;;;;11.52;100.00;99163.78;31271954;28;20574;-81
2024/02/08 09:11:27;;;;;;;7.38;4.20;;;;;;;11.93;100.00;99183.56;31269174;28;20050;-80
2024/02/08 09:26:48;;;;;;;6.93;3.20;;;;;;;12.61;100.00;99173.38;31281961;28;20507;-81
2024/02/08 09:41:50;;;;;;;5.27;2.60;;;;;;;14.13;100.00;99153.97;31253880;28;20060;-80
2024/02/08 09:57:23;;;;;;;1.70;1.20;;;;;;;13.92;88.31;99153.81;31252171;28;20124;-83
2024/02/08 10:12:40;;;;;;;4.17;1.10;;;;;;;12.58;100.00;99163.38;31245262;28;20510;-78
2024/02/08 10:27:43;;;;;;;2.60;1.20;;;;;;;11.83;100.00;99199.09;31270649;28;20046;-83
2024/02/08 10:42:45;;;;;;;1.27;0.90;;;;;;;11.35;100.00;99186.16;31252191;28;20053;-79
2024/02/08 11:13:15;;;;;;;1.90;1.07;;;;;;;11.35;100.00;99188.88;31276816;28;20049;-81
2024/02/08 11:29:30;;;;;;;;;;;;;;;;;;;;;
2024/02/08 11:45:08;;;;;;;4.97;1.30;;;;;;;10.61;100.00;99216.75;30307408;29;20060;-82
2024/02/08 12:00:15;;;;;;;1.93;1.10;;;;;;;10.39;100.00;99227.56;30730719;28;20391;-85
2024/02/08 12:15:21;;;;;;;3.37;1.50;;;;;;;10.17;100.00;99249.13;31110623;28;20106;-88
2024/02/08 12:30:31;;;;;;;4.87;2.30;;;;;;;9.99;100.00;99254.34;31307829;28;20172;-86
2024/02/08 12:45:34;;;;;;;2.17;1.20;;;;;;;9.31;100.00;99255.56;31279572;28;20081;-83
2024/02/08 13:00:37;;;;;;;2.23;1.10;;;;;;;8.93;100.00;99277.88;31269821;28;20087;-80
2024/02/08 13:15:42;;;;;;;2.07;1.10;;;;;;;8.77;100.00;99273.25;31264305;28;20056;-84
2024/02/08 13:30:48;;;;;;;3.20;1.10;;;;;;;8.43;100.00;99292.66;31257028;28;20052;-82
2024/02/08 13:45:52;;;;;;;4.33;1.20;;;;;;;8.34;100.00;99308.69;31247882;28;20042;-77
2024/02/08 14:00:57;;;;;;;4.60;1.80;;;;;;;8.54;100.00;99312.06;31258046;28;20075;-78
2024/02/08 14:16:13;;;;;;;3.10;1.50;;;;;;;8.53;100.00;99318.66;31259431;28;20045;-87
2024/02/08 14:31:19;;;;;;;3.13;1.30;;;;;;;8.48;100.00;99313.03;31275300;28;20049;-80
2024/02/08 14:46:25;;;;;;;3.07;1.30;;;;;;;8.53;100.00;99324.06;31286554;28;20053;-82
2024/02/08 15:01:38;;;;;;;3.57;1.10;;;;;;;8.46;100.00;99340.50;31258643;28;20041;-81
2024/02/08 15:16:44;;;;;;;1.53;1.10;;;;;;;8.29;100.00;99336.19;31295571;28;20135;-90
2024/02/08 15:31:46;;;;;;;2.27;1.43;;;;;;;8.37;100.00;99358.47;31289368;28;20073;-84
2024/02/08 15:46:50;;;;;;;2.17;1.30;;;;;;;8.29;100.00;99379.47;31287865;28;20053;-79
2024/02/08 16:01:57;;;;;;;2.57;1.70;;;;;;;8.43;100.00;99400.84;31272269;28;20054;-81
2024/02/08 16:17:07;;;;;;;2.33;1.53;;;;;;;8.34;100.00;99419.56;31275803;28;20061;-87
2024/02/08 16:32:19;;;;;;;2.33;1.70;;;;;;;8.33;100.00;99428.09;31290558;28;20092;-79
2024/02/08 16:47:34;;;;;;;3.87;1.50;;;;;;;8.34;100.00;99429.63;31287697;28;20083;-88
2024/02/08 17:02:49;;;;;;;3.43;1.63;;;;;;;7.74;100.00;99442.38;31271685;28;20057;-81
2024/02/08 17:17:54;;;;;;;13.23;7.17;;;;;;;7.41;100.00;99461.09;31246488;28;20491;-81
2024/02/08 17:33:00;;;;;;;22.70;8.03;;;;;;;7.29;100.00;99458.22;31253006;28;20061;-78
2024/02/08 17:48:06;;;;;;;14.43;7.20;;;;;;;7.16;100.00;99458.03;31256114;28;20055;-80
2024/02/08 18:03:15;;;;;;;16.17;8.37;;;;;;;7.00;100.00;99472.16;31257912;28;20068;-81
2024/02/08 18:18:22;;;;;;;17.30;7.40;;;;;;;7.09;100.00;99491.28;31245680;28;20049;-78
2024/02/08 18:33:27;;;;;;;28.97;13.23;;;;;;;6.98;100.00;99474.50;31298202;28;20052;-82
2024/02/08 18:48:34;;;;;;;11.63;5.60;;;;;;;6.83;100.00;99467.81;31258694;28;20076;-82
2024/02/08 19:03:37;;;;;;;11.37;5.43;;;;;;;6.86;100.00;99488.56;31267110;28;20053;-78
2024/02/08 19:18:57;;;;;;;10.53;4.50;;;;;;;7.05;100.00;99487.91;31274312;28;20137;-83
2024/02/08 19:34:02;;;;;;;11.13;4.90;;;;;;;6.87;100.00;99492.03;31281285;28;20049;-81
2024/02/08 19:49:07;;;;;;;10.30;3.40;;;;;;;6.80;100.00;99501.00;31285587;28;20050;-79
2024/02/08 20:04:13;;;;;;;4.70;3.07;;;;;;;6.81;100.00;99534.91;31265180;28;20065;-78
2024/02/08 20:19:17;;;;;;;;;;;;;;;7.11;100.00;99558.38;31273174;28;20088;-79
2024/02/08 20:34:20;;;;;;;5.60;3.03;;;;;;;6.83;100.00;99533.31;31266277;28;19921;-79
2024/02/08 20:49:27;;;;;;;3.37;2.17;;;;;;;6.96;100.00;99552.41;31292182;28;20056;-80
2024/02/08 21:04:30;;;;;;;5.60;2.83;;;;;;;6.96;100.00;99552.41;31260951;28;20053;-78
2024/02/08 21:19:33;;;;;;;4.63;3.07;;;;;;;6.88;100.00;99572.56;31267751;28;20053;-85
2024/02/08 21:34:35;;;;;;;5.43;3.10;;;;;;;6.92;100.00;99551.69;31263085;28;20041;-82
2024/02/08 21:49:38;;;;;;;3.40;2.10;;;;;;;7.01;100.00;99554.66;31269476;28;20041;-80
2024/02/08 22:04:41;;;;;;;4.33;2.50;;;;;;;7.54;100.00;99588.22;31248520;28;20057;-81
2024/02/08 22:19:46;;;;;;;18.80;8.17;;;;;;;7.56;100.00;99568.91;31252417;28;20052;-82
2024/02/08 22:34:49;;;;;;;13.33;6.67;;;;;;;7.44;100.00;99567.53;31238071;28;20052;-82
2024/02/08 22:49:51;;;;;;;13.50;6.70;;;;;;;7.01;100.00;99549.25;31250801;28;20049;-80
2024/02/08 23:04:54;;;;;;;11.17;6.13;;;;;;;7.22;100.00;99555.53;31243142;28;20077;-81
2024/02/08 23:19:58;;;;;;;15.57;6.67;;;;;;;6.97;100.00;99543.16;31250766;28;20049;-82
2024/02/08 23:35:01;;;;;;;6.30;4.17;;;;;;;6.89;100.00;99549.81;31251440;28;20053;-82
2024/02/08 23:50:08;;;;;;;10.00;4.80;;;;;;;7.08;100.00;99580.78;31248292;28;20511;-82
